createdAt,value
2019-06-01T00:00:11.975Z,1017.85
2019-06-01T00:01:09.002Z,1017.82
2019-06-01T00:02:08.999Z,1017.85
2019-06-01T00:03:08.992Z,1017.84
2019-06-01T00:04:08.975Z,1017.85
2019-06-01T00:05:08.973Z,1017.79
2019-06-01T00:06:08.951Z,1017.78
2019-06-01T00:07:08.940Z,1017.79
2019-06-01T00:08:08.931Z,1017.80
2019-06-01T00:09:08.951Z,1017.79
2019-06-01T00:10:08.928Z,1017.79
2019-06-01T00:11:08.925Z,1017.78
2019-06-01T00:12:08.886Z,1017.76
2019-06-01T00:13:08.871Z,1017.77
2019-06-01T00:14:08.861Z,1017.78
2019-06-01T00:15:08.867Z,1017.78
2019-06-01T00:16:08.846Z,1017.75
2019-06-01T00:17:08.827Z,1017.76
2019-06-01T00:18:08.816Z,1017.73
2019-06-01T00:19:08.806Z,1017.77
2019-06-01T00:20:08.838Z,1017.78
2019-06-01T00:21:08.791Z,1017.77
2019-06-01T00:22:08.778Z,1017.78
2019-06-01T00:23:08.766Z,1017.76
2019-06-01T00:24:08.764Z,1017.76
2019-06-01T00:25:08.753Z,1017.74
2019-06-01T00:26:08.746Z,1017.69
2019-06-01T00:27:08.730Z,1017.75
2019-06-01T00:28:08.712Z,1017.76
2019-06-01T00:29:08.696Z,1017.72
2019-06-01T00:30:08.684Z,1017.75
2019-06-01T00:31:08.689Z,1017.73
2019-06-01T00:32:08.669Z,1017.72
2019-06-01T00:33:08.651Z,1017.73
2019-06-01T00:34:08.645Z,1017.76
2019-06-01T00:35:08.642Z,1017.77
2019-06-01T00:36:08.634Z,1017.79
2019-06-01T00:37:08.654Z,1017.79
2019-06-01T00:38:09.536Z,1017.77
2019-06-01T00:39:08.590Z,1017.75
2019-06-01T00:40:08.584Z,1017.72
2019-06-01T00:41:08.563Z,1017.71
2019-06-01T00:42:08.552Z,1017.68
2019-06-01T00:43:08.557Z,1017.70
2019-06-01T00:44:08.573Z,1017.71
2019-06-01T00:45:08.522Z,1017.72
2019-06-01T00:46:08.513Z,1017.67
2019-06-01T00:47:08.504Z,1017.68
2019-06-01T00:48:08.513Z,1017.67
2019-06-01T00:49:08.484Z,1017.66
2019-06-01T00:50:08.471Z,1017.70
2019-06-01T00:51:08.455Z,1017.66
2019-06-01T00:52:08.447Z,1017.63
2019-06-01T00:53:08.449Z,1017.66
2019-06-01T00:54:08.427Z,1017.63
2019-06-01T00:55:08.418Z,1017.66
2019-06-01T00:56:08.405Z,1017.65
2019-06-01T00:57:08.402Z,1017.65
2019-06-01T00:58:08.389Z,1017.68
2019-06-01T00:59:08.373Z,1017.67
2019-06-01T01:00:08.362Z,1017.66
2019-06-01T01:01:08.356Z,1017.66
2019-06-01T01:02:08.343Z,1017.67
2019-06-01T01:03:08.345Z,1017.69
2019-06-01T01:04:08.322Z,1017.69
2019-06-01T01:05:08.309Z,1017.68
2019-06-01T01:06:08.325Z,1017.69
2019-06-01T01:07:08.291Z,1017.73
2019-06-01T01:08:08.286Z,1017.72
2019-06-01T01:09:08.275Z,1017.71
2019-06-01T01:10:08.262Z,1017.70
2019-06-01T01:11:08.241Z,1017.73
2019-06-01T01:12:08.227Z,1017.71
2019-06-01T01:13:08.223Z,1017.67
2019-06-01T01:14:08.206Z,1017.70
2019-06-01T01:15:08.254Z,1017.70
2019-06-01T01:16:08.224Z,1017.69
2019-06-01T01:17:08.180Z,1017.71
2019-06-01T01:18:08.163Z,1017.71
2019-06-01T01:19:08.154Z,1017.70
2019-06-01T01:20:08.151Z,1017.75
2019-06-01T01:21:08.136Z,1017.75
2019-06-01T01:22:08.131Z,1017.73
2019-06-01T01:23:08.115Z,1017.78
2019-06-01T01:24:08.102Z,1017.73
2019-06-01T01:25:08.101Z,1017.78
2019-06-01T01:26:08.101Z,1017.75
2019-06-01T01:27:08.084Z,1017.71
2019-06-01T01:28:08.051Z,1017.75
2019-06-01T01:29:10.199Z,1017.69
2019-06-01T01:30:08.039Z,1017.71
2019-06-01T01:31:13.890Z,1017.65
2019-06-01T01:32:09.019Z,1017.65
2019-06-01T01:33:08.001Z,1017.63
2019-06-01T01:34:07.993Z,1017.60
2019-06-01T01:35:07.988Z,1017.62
2019-06-01T01:36:07.988Z,1017.63
2019-06-01T01:37:07.962Z,1017.62
2019-06-01T01:38:07.948Z,1017.62
2019-06-01T01:39:07.937Z,1017.64
2019-06-01T01:40:07.957Z,1017.60
2019-06-01T01:41:07.914Z,1017.56
2019-06-01T01:42:07.899Z,1017.58
2019-06-01T01:43:07.898Z,1017.59
2019-06-01T01:44:07.884Z,1017.55
2019-06-01T01:45:07.867Z,1017.57
2019-06-01T01:46:07.880Z,1017.57
2019-06-01T01:47:07.847Z,1017.57
2019-06-01T01:48:07.839Z,1017.58
2019-06-01T01:49:07.832Z,1017.54
2019-06-01T01:50:07.820Z,1017.50
2019-06-01T01:51:07.805Z,1017.53
2019-06-01T01:52:07.804Z,1017.53
2019-06-01T01:53:07.783Z,1017.54
2019-06-01T01:54:07.768Z,1017.54
2019-06-01T01:55:07.756Z,1017.52
2019-06-01T01:56:07.788Z,1017.51
2019-06-01T01:57:07.741Z,1017.51
2019-06-01T01:58:07.730Z,1017.52
2019-06-01T01:59:07.718Z,1017.53
2019-06-01T02:00:07.702Z,1017.52
2019-06-01T02:01:21.373Z,1017.47
2019-06-01T02:02:08.691Z,1017.49
2019-06-01T02:03:07.670Z,1017.45
2019-06-01T02:04:07.659Z,1017.47
2019-06-01T02:05:07.653Z,1017.50
2019-06-01T02:06:07.641Z,1017.46
2019-06-01T02:07:07.668Z,1017.47
2019-06-01T02:08:07.621Z,1017.47
2019-06-01T02:09:07.608Z,1017.49
2019-06-01T02:10:07.592Z,1017.46
2019-06-01T02:11:07.586Z,1017.47
2019-06-01T02:12:07.575Z,1017.45
2019-06-01T02:13:07.568Z,1017.42
2019-06-01T02:14:07.547Z,1017.45
2019-06-01T02:15:07.540Z,1017.43
2019-06-01T02:16:07.564Z,1017.40
2019-06-01T02:17:07.530Z,1017.38
2019-06-01T02:18:07.508Z,1017.36
2019-06-01T02:19:07.497Z,1017.37
2019-06-01T02:20:07.497Z,1017.37
2019-06-01T02:21:07.493Z,1017.34
2019-06-01T02:22:07.473Z,1017.34
2019-06-01T02:23:07.474Z,1017.35
2019-06-01T02:24:07.436Z,1017.31
2019-06-01T02:25:07.445Z,1017.31
2019-06-01T02:26:07.418Z,1017.36
2019-06-01T02:27:07.414Z,1017.33
2019-06-01T02:28:07.397Z,1017.36
2019-06-01T02:29:07.403Z,1017.32
2019-06-01T02:30:07.377Z,1017.35
2019-06-01T02:31:07.394Z,1017.35
2019-06-01T02:32:07.354Z,1017.33
2019-06-01T02:33:07.346Z,1017.32
2019-06-01T02:34:07.377Z,1017.31
2019-06-01T02:35:07.324Z,1017.30
2019-06-01T02:36:07.305Z,1017.29
2019-06-01T02:37:07.326Z,1017.28
2019-06-01T02:38:07.291Z,1017.29
2019-06-01T02:39:07.285Z,1017.26
2019-06-01T02:40:07.293Z,1017.28
2019-06-01T02:41:07.264Z,1017.26
2019-06-01T02:42:07.265Z,1017.24
2019-06-01T02:43:07.354Z,1017.21
2019-06-01T02:44:07.223Z,1017.21
2019-06-01T02:45:07.222Z,1017.27
2019-06-01T02:46:07.658Z,1017.25
2019-06-01T02:47:07.189Z,1017.20
2019-06-01T02:48:07.198Z,1017.23
2019-06-01T02:49:07.163Z,1017.24
2019-06-01T02:50:07.167Z,1017.24
2019-06-01T02:51:07.159Z,1017.26
2019-06-01T02:52:07.129Z,1017.29
2019-06-01T02:53:07.153Z,1017.30
2019-06-01T02:54:07.112Z,1017.30
2019-06-01T02:55:07.107Z,1017.27
2019-06-01T02:56:07.102Z,1017.28
2019-06-01T02:57:07.090Z,1017.26
2019-06-01T02:58:07.073Z,1017.24
2019-06-01T02:59:07.068Z,1017.23
2019-06-01T03:00:07.080Z,1017.26
2019-06-01T03:01:07.126Z,1017.25
2019-06-01T03:02:11.881Z,1017.27
2019-06-01T03:03:08.009Z,1017.27
2019-06-01T03:04:08.105Z,1017.26
2019-06-01T03:05:07.692Z,1017.25
2019-06-01T03:06:07.666Z,1017.26
2019-06-01T03:07:07.477Z,1017.28
2019-06-01T03:08:07.622Z,1017.29
2019-06-01T03:09:08.845Z,1017.27
2019-06-01T03:10:07.075Z,1017.33
2019-06-01T03:11:08.008Z,1017.33
2019-06-01T03:12:08.195Z,1017.33
2019-06-01T03:13:06.897Z,1017.33
2019-06-01T03:14:06.898Z,1017.32
2019-06-01T03:15:06.892Z,1017.33
2019-06-01T03:16:06.870Z,1017.31
2019-06-01T03:17:07.904Z,1017.29
2019-06-01T03:18:07.744Z,1017.31
2019-06-01T03:19:08.071Z,1017.30
2019-06-01T03:20:07.849Z,1017.30
2019-06-01T03:21:07.883Z,1017.32
2019-06-01T03:22:07.320Z,1017.31
2019-06-01T03:23:07.901Z,1017.27
2019-06-01T03:24:08.059Z,1017.26
2019-06-01T03:25:07.995Z,1017.29
2019-06-01T03:26:08.625Z,1017.26
2019-06-01T03:27:06.745Z,1017.27
2019-06-01T03:28:06.843Z,1017.27
2019-06-01T03:29:07.297Z,1017.21
2019-06-01T03:30:09.115Z,1017.29
2019-06-01T03:31:08.833Z,1017.28
2019-06-01T03:32:24.127Z,1017.26
2019-06-01T03:33:10.082Z,1017.28
2019-06-01T03:34:08.724Z,1017.26
2019-06-01T03:35:06.818Z,1017.25
2019-06-01T03:36:06.904Z,1017.22
2019-06-01T03:37:07.096Z,1017.24
2019-06-01T03:38:06.989Z,1017.24
2019-06-01T03:39:06.637Z,1017.24
2019-06-01T03:40:14.636Z,1017.24
2019-06-01T03:41:08.244Z,1017.28
2019-06-01T03:42:07.964Z,1017.25
2019-06-01T03:43:07.232Z,1017.27
2019-06-01T03:44:06.623Z,1017.28
2019-06-01T03:45:07.636Z,1017.27
2019-06-01T03:46:06.700Z,1017.19
2019-06-01T03:47:07.595Z,1017.27
2019-06-01T03:48:06.811Z,1017.21
2019-06-01T03:49:07.617Z,1017.26
2019-06-01T03:50:06.900Z,1017.24
2019-06-01T03:51:08.183Z,1017.23
2019-06-01T03:52:06.900Z,1017.26
2019-06-01T03:53:06.451Z,1017.24
2019-06-01T03:54:08.138Z,1017.30
2019-06-01T03:55:06.429Z,1017.27
2019-06-01T03:56:06.949Z,1017.30
2019-06-01T03:57:07.259Z,1017.30
2019-06-01T03:58:07.278Z,1017.33
2019-06-01T03:59:07.289Z,1017.31
2019-06-01T04:00:07.170Z,1017.29
2019-06-01T04:01:07.152Z,1017.30
2019-06-01T04:02:07.101Z,1017.30
2019-06-01T04:03:07.142Z,1017.31
2019-06-01T04:04:07.126Z,1017.33
2019-06-01T04:05:07.415Z,1017.29
2019-06-01T04:06:07.378Z,1017.31
2019-06-01T04:07:06.478Z,1017.32
2019-06-01T04:08:07.449Z,1017.29
2019-06-01T04:09:07.619Z,1017.31
2019-06-01T04:10:07.824Z,1017.32
2019-06-01T04:11:07.694Z,1017.37
2019-06-01T04:12:07.561Z,1017.34
2019-06-01T04:13:07.281Z,1017.36
2019-06-01T04:14:06.240Z,1017.39
2019-06-01T04:15:10.085Z,1017.39
2019-06-01T04:16:07.911Z,1017.42
2019-06-01T04:17:06.252Z,1017.36
2019-06-01T04:18:06.223Z,1017.34
2019-06-01T04:19:06.277Z,1017.36
2019-06-01T04:20:06.154Z,1017.36
2019-06-01T04:21:06.151Z,1017.35
2019-06-01T04:22:06.131Z,1017.37
2019-06-01T04:23:06.227Z,1017.38
2019-06-01T04:24:06.126Z,1017.41
2019-06-01T04:25:06.099Z,1017.38
2019-06-01T04:26:06.089Z,1017.39
2019-06-01T04:27:06.192Z,1017.41
2019-06-01T04:28:06.307Z,1017.39
2019-06-01T04:29:06.410Z,1017.43
2019-06-01T04:30:06.757Z,1017.43
2019-06-01T04:31:06.519Z,1017.46
2019-06-01T04:32:06.520Z,1017.44
2019-06-01T04:33:07.025Z,1017.41
2019-06-01T04:34:06.805Z,1017.40
2019-06-01T04:35:07.352Z,1017.37
2019-06-01T04:36:06.892Z,1017.36
2019-06-01T04:37:07.064Z,1017.45
2019-06-01T04:38:07.112Z,1017.39
2019-06-01T04:39:07.219Z,1017.40
2019-06-01T04:40:05.948Z,1017.37
2019-06-01T04:41:05.933Z,1017.39
2019-06-01T04:42:05.913Z,1017.42
2019-06-01T04:43:05.927Z,1017.39
2019-06-01T04:44:05.996Z,1017.41
2019-06-01T04:45:06.821Z,1017.44
2019-06-01T04:46:06.167Z,1017.40
2019-06-01T04:47:06.656Z,1017.43
2019-06-01T04:48:06.378Z,1017.44
2019-06-01T04:49:06.536Z,1017.41
2019-06-01T04:50:06.683Z,1017.47
2019-06-01T04:51:06.638Z,1017.45
2019-06-01T04:52:06.767Z,1017.48
2019-06-01T04:53:06.854Z,1017.46
2019-06-01T04:54:06.870Z,1017.51
2019-06-01T04:55:07.297Z,1017.47
2019-06-01T04:56:07.031Z,1017.44
2019-06-01T04:57:06.771Z,1017.46
2019-06-01T04:58:06.788Z,1017.45
2019-06-01T04:59:06.746Z,1017.46
2019-06-01T05:00:19.838Z,1017.46
2019-06-01T05:01:06.968Z,1017.49
2019-06-01T05:02:07.235Z,1017.54
2019-06-01T05:03:07.704Z,1017.54
2019-06-01T05:04:06.987Z,1017.52
2019-06-01T05:05:07.079Z,1017.53
2019-06-01T05:06:07.075Z,1017.56
2019-06-01T05:07:05.643Z,1017.52
2019-06-01T05:08:05.650Z,1017.54
2019-06-01T05:09:05.626Z,1017.56
2019-06-01T05:10:05.606Z,1017.56
2019-06-01T05:11:07.050Z,1017.52
2019-06-01T05:12:05.589Z,1017.51
2019-06-01T05:13:05.572Z,1017.50
2019-06-01T05:14:05.565Z,1017.58
2019-06-01T05:15:05.593Z,1017.52
2019-06-01T05:16:05.930Z,1017.53
2019-06-01T05:17:05.968Z,1017.50
2019-06-01T05:18:05.944Z,1017.54
2019-06-01T05:19:06.050Z,1017.55
2019-06-01T05:20:06.255Z,1017.56
2019-06-01T05:21:06.424Z,1017.55
2019-06-01T05:22:06.433Z,1017.58
2019-06-01T05:23:06.572Z,1017.58
2019-06-01T05:24:06.613Z,1017.60
2019-06-01T05:25:06.713Z,1017.58
2019-06-01T05:26:06.734Z,1017.59
2019-06-01T05:27:05.447Z,1017.58
2019-06-01T05:28:05.412Z,1017.60
2019-06-01T05:29:05.405Z,1017.58
2019-06-01T05:30:05.393Z,1017.58
2019-06-01T05:31:05.378Z,1017.60
2019-06-01T05:32:05.374Z,1017.65
2019-06-01T05:33:18.553Z,1017.65
2019-06-01T05:34:07.644Z,1017.63
2019-06-01T05:35:05.331Z,1017.63
2019-06-01T05:36:05.325Z,1017.67
2019-06-01T05:37:05.311Z,1017.61
2019-06-01T05:38:05.299Z,1017.68
2019-06-01T05:39:05.311Z,1017.58
2019-06-01T05:40:05.282Z,1017.59
2019-06-01T05:41:05.271Z,1017.68
2019-06-01T05:42:05.270Z,1017.66
2019-06-01T05:43:05.252Z,1017.67
2019-06-01T05:44:05.234Z,1017.67
2019-06-01T05:45:05.243Z,1017.69
2019-06-01T05:46:05.213Z,1017.67
2019-06-01T05:47:05.199Z,1017.64
2019-06-01T05:48:05.196Z,1017.63
2019-06-01T05:49:05.187Z,1017.63
2019-06-01T05:50:05.208Z,1017.59
2019-06-01T05:51:05.162Z,1017.62
2019-06-01T05:52:05.146Z,1017.65
2019-06-01T05:53:05.140Z,1017.62
2019-06-01T05:54:05.127Z,1017.66
2019-06-01T05:55:05.111Z,1017.64
2019-06-01T05:56:05.115Z,1017.62
2019-06-01T05:57:05.091Z,1017.66
2019-06-01T05:58:05.086Z,1017.66
2019-06-01T05:59:05.069Z,1017.70
2019-06-01T06:00:05.065Z,1017.65
2019-06-01T06:01:05.056Z,1017.63
2019-06-01T06:02:05.035Z,1017.69
2019-06-01T06:03:05.046Z,1017.65
2019-06-01T06:04:05.025Z,1017.64
2019-06-01T06:05:05.007Z,1017.64
2019-06-01T06:06:05.004Z,1017.66
2019-06-01T06:07:04.992Z,1017.68
2019-06-01T06:08:04.974Z,1017.69
2019-06-01T06:09:04.969Z,1017.68
2019-06-01T06:10:04.963Z,1017.69
2019-06-01T06:11:04.942Z,1017.71
2019-06-01T06:12:04.928Z,1017.68
2019-06-01T06:13:04.919Z,1017.69
2019-06-01T06:14:04.919Z,1017.68
2019-06-01T06:15:04.901Z,1017.67
2019-06-01T06:16:04.884Z,1017.68
2019-06-01T06:17:04.886Z,1017.71
2019-06-01T06:18:04.866Z,1017.70
2019-06-01T06:19:04.855Z,1017.70
2019-06-01T06:20:04.843Z,1017.71
2019-06-01T06:21:04.832Z,1017.75
2019-06-01T06:22:04.834Z,1017.67
2019-06-01T06:23:04.813Z,1017.73
2019-06-01T06:24:04.808Z,1017.72
2019-06-01T06:25:04.823Z,1017.74
2019-06-01T06:26:04.779Z,1017.71
2019-06-01T06:27:04.780Z,1017.71
2019-06-01T06:28:04.767Z,1017.73
2019-06-01T06:29:04.750Z,1017.69
2019-06-01T06:30:04.731Z,1017.70
2019-06-01T06:31:04.724Z,1017.71
2019-06-01T06:32:04.762Z,1017.74
2019-06-01T06:33:04.721Z,1017.79
2019-06-01T06:34:04.699Z,1017.68
2019-06-01T06:35:04.678Z,1017.66
2019-06-01T06:36:04.673Z,1017.71
2019-06-01T06:37:04.655Z,1017.73
2019-06-01T06:38:04.645Z,1017.74
2019-06-01T06:39:04.862Z,1017.74
2019-06-01T06:40:04.623Z,1017.74
2019-06-01T06:41:04.612Z,1017.73
2019-06-01T06:42:04.609Z,1017.73
2019-06-01T06:43:18.570Z,1017.75
2019-06-01T06:44:05.608Z,1017.70
2019-06-01T06:45:04.575Z,1017.69
2019-06-01T06:46:04.564Z,1017.70
2019-06-01T06:47:04.557Z,1017.66
2019-06-01T06:48:04.537Z,1017.74
2019-06-01T06:49:04.536Z,1017.71
2019-06-01T06:50:04.523Z,1017.74
2019-06-01T06:51:04.501Z,1017.80
2019-06-01T06:52:04.496Z,1017.76
2019-06-01T06:53:04.489Z,1017.73
2019-06-01T06:54:04.477Z,1017.73
2019-06-01T06:55:04.482Z,1017.73
2019-06-01T06:56:04.461Z,1017.73
2019-06-01T06:57:04.435Z,1017.73
2019-06-01T06:58:04.425Z,1017.74
2019-06-01T06:59:04.428Z,1017.76
2019-06-01T07:00:04.416Z,1017.73
2019-06-01T07:01:04.509Z,1017.76
2019-06-01T07:02:04.411Z,1017.72
2019-06-01T07:03:04.381Z,1017.71
2019-06-01T07:04:12.740Z,1017.72
2019-06-01T07:05:05.350Z,1017.76
2019-06-01T07:06:04.351Z,1017.75
2019-06-01T07:07:04.341Z,1017.76
2019-06-01T07:08:04.317Z,1017.76
2019-06-01T07:09:04.306Z,1017.81
2019-06-01T07:10:04.307Z,1017.75
2019-06-01T07:11:04.296Z,1017.78
2019-06-01T07:12:04.296Z,1017.69
2019-06-01T07:13:04.289Z,1017.71
2019-06-01T07:14:04.271Z,1017.70
2019-06-01T07:15:04.268Z,1017.69
2019-06-01T07:16:04.234Z,1017.70
2019-06-01T07:17:04.269Z,1017.71
2019-06-01T07:18:04.217Z,1017.71
2019-06-01T07:19:04.218Z,1017.69
2019-06-01T07:20:04.200Z,1017.65
2019-06-01T07:21:04.191Z,1017.66
2019-06-01T07:22:04.182Z,1017.69
2019-06-01T07:23:04.151Z,1017.69
2019-06-01T07:24:04.153Z,1017.72
2019-06-01T07:25:04.135Z,1017.74
2019-06-01T07:26:04.125Z,1017.78
2019-06-01T07:27:04.122Z,1017.76
2019-06-01T07:28:04.130Z,1017.74
2019-06-01T07:29:04.091Z,1017.70
2019-06-01T07:30:04.093Z,1017.71
2019-06-01T07:31:04.070Z,1017.74
2019-06-01T07:32:04.063Z,1017.77
2019-06-01T07:33:04.054Z,1017.74
2019-06-01T07:34:04.032Z,1017.89
2019-06-01T07:35:04.029Z,1017.87
2019-06-01T07:36:04.016Z,1017.91
2019-06-01T07:37:04.031Z,1017.91
2019-06-01T07:38:04.007Z,1017.94
2019-06-01T07:39:03.983Z,1017.98
2019-06-01T07:40:03.966Z,1017.90
2019-06-01T07:41:03.965Z,1017.91
2019-06-01T07:42:03.957Z,1017.65
2019-06-01T07:43:03.970Z,1017.75
2019-06-01T07:44:03.923Z,1017.83
2019-06-01T07:45:03.919Z,1017.77
2019-06-01T07:46:03.901Z,1017.99
2019-06-01T07:47:03.891Z,1018.01
2019-06-01T07:48:03.900Z,1018.03
2019-06-01T07:49:03.891Z,1018.04
2019-06-01T07:50:03.864Z,1018.07
2019-06-01T07:51:03.872Z,1018.07
2019-06-01T07:52:12.648Z,1017.83
2019-06-01T07:53:04.834Z,1018.11
2019-06-01T07:54:03.820Z,1018.14
2019-06-01T07:55:03.814Z,1018.13
2019-06-01T07:56:03.799Z,1018.15
2019-06-01T07:57:03.812Z,1018.09
2019-06-01T07:58:03.771Z,1018.15
2019-06-01T07:59:03.764Z,1018.12
2019-06-01T08:00:03.753Z,1018.16
2019-06-01T08:01:03.745Z,1018.12
2019-06-01T08:02:03.748Z,1018.05
2019-06-01T08:03:03.739Z,1018.18
2019-06-01T08:04:03.714Z,1018.24
2019-06-01T08:05:03.706Z,1017.86
2019-06-01T08:06:03.699Z,1017.92
2019-06-01T08:07:03.700Z,1017.99
2019-06-01T08:08:03.671Z,1018.20
2019-06-01T08:09:03.666Z,1018.16
2019-06-01T08:10:03.665Z,1018.11
2019-06-01T08:11:03.637Z,1018.05
2019-06-01T08:12:03.702Z,1018.14
2019-06-01T08:13:03.617Z,1018.18
2019-06-01T08:14:03.619Z,1018.26
2019-06-01T08:15:03.615Z,1018.22
2019-06-01T08:16:03.643Z,1018.14
2019-06-01T08:17:03.573Z,1018.22
2019-06-01T08:18:03.574Z,1018.13
2019-06-01T08:19:03.559Z,1018.09
2019-06-01T08:20:03.554Z,1018.23
2019-06-01T08:21:03.536Z,1018.19
2019-06-01T08:22:03.532Z,1018.28
2019-06-01T08:23:03.507Z,1018.19
2019-06-01T08:24:03.520Z,1018.27
2019-06-01T08:25:03.498Z,1018.16
2019-06-01T08:26:03.477Z,1018.16
2019-06-01T08:27:03.471Z,1018.21
2019-06-01T08:28:03.484Z,1018.01
2019-06-01T08:29:03.443Z,1018.10
2019-06-01T08:30:03.445Z,1018.06
2019-06-01T08:31:03.431Z,1018.02
2019-06-01T08:32:03.419Z,1018.07
2019-06-01T08:33:03.452Z,1018.07
2019-06-01T08:34:03.410Z,1018.06
2019-06-01T08:35:08.631Z,1018.03
2019-06-01T08:36:04.376Z,1018.04
2019-06-01T08:37:03.441Z,1018.01
2019-06-01T08:38:03.354Z,1017.96
2019-06-01T08:39:03.356Z,1018.01
2019-06-01T08:40:03.482Z,1018.04
2019-06-01T08:41:03.336Z,1017.99
2019-06-01T08:42:03.322Z,1017.88
2019-06-01T08:43:03.309Z,1018.03
2019-06-01T08:44:03.313Z,1018.06
2019-06-01T08:45:03.447Z,1018.02
2019-06-01T08:46:03.278Z,1018.01
2019-06-01T08:47:03.261Z,1017.96
2019-06-01T08:48:03.283Z,1017.96
2019-06-01T08:49:03.238Z,1017.95
2019-06-01T08:50:03.242Z,1017.78
2019-06-01T08:51:03.214Z,1017.77
2019-06-01T08:52:03.218Z,1017.79
2019-06-01T08:53:03.193Z,1017.81
2019-06-01T08:54:03.185Z,1017.94
2019-06-01T08:55:03.178Z,1017.91
2019-06-01T08:56:03.161Z,1017.89
2019-06-01T08:57:03.196Z,1017.85
2019-06-01T08:58:03.152Z,1017.69
2019-06-01T08:59:03.133Z,1017.64
2019-06-01T09:00:03.124Z,1017.76
2019-06-01T09:01:03.114Z,1017.63
2019-06-01T09:02:03.099Z,1017.63
2019-06-01T09:03:03.102Z,1017.74
2019-06-01T09:04:03.082Z,1017.40
2019-06-01T09:05:03.088Z,1017.45
2019-06-01T09:06:03.065Z,1017.65
2019-06-01T09:07:03.101Z,1017.35
2019-06-01T09:08:03.044Z,1017.70
2019-06-01T09:09:03.026Z,1017.66
2019-06-01T09:10:03.026Z,1017.67
2019-06-01T09:11:03.018Z,1017.67
2019-06-01T09:12:03.038Z,1017.52
2019-06-01T09:13:03.008Z,1017.65
2019-06-01T09:14:02.976Z,1017.61
2019-06-01T09:15:02.968Z,1017.55
2019-06-01T09:16:02.960Z,1017.59
2019-06-01T09:17:02.979Z,1017.62
2019-06-01T09:18:02.946Z,1017.59
2019-06-01T09:19:02.922Z,1017.54
2019-06-01T09:20:02.925Z,1017.59
2019-06-01T09:21:02.923Z,1017.51
2019-06-01T09:22:02.895Z,1017.48
2019-06-01T09:23:02.902Z,1017.45
2019-06-01T09:24:02.873Z,1017.59
2019-06-01T09:25:02.881Z,1017.57
2019-06-01T09:26:02.908Z,1017.54
2019-06-01T09:27:02.843Z,1017.44
2019-06-01T09:28:02.877Z,1017.38
2019-06-01T09:29:02.844Z,1017.47
2019-06-01T09:30:02.807Z,1017.43
2019-06-01T09:31:02.812Z,1017.43
2019-06-01T09:32:02.793Z,1017.45
2019-06-01T09:33:02.789Z,1017.47
2019-06-01T09:34:02.776Z,1017.40
2019-06-01T09:35:02.794Z,1017.39
2019-06-01T09:36:02.748Z,1017.40
2019-06-01T09:37:02.739Z,1017.35
2019-06-01T09:38:02.728Z,1017.37
2019-06-01T09:39:02.730Z,1017.31
2019-06-01T09:40:02.709Z,1017.27
2019-06-01T09:41:02.700Z,1017.25
2019-06-01T09:42:02.698Z,1017.26
2019-06-01T09:43:02.672Z,1017.34
2019-06-01T09:44:02.686Z,1017.33
2019-06-01T09:45:02.652Z,1017.33
2019-06-01T09:46:03.577Z,1017.26
2019-06-01T09:47:02.636Z,1017.29
2019-06-01T09:48:02.630Z,1017.30
2019-06-01T09:49:02.695Z,1017.28
2019-06-01T09:50:02.648Z,1017.25
2019-06-01T09:51:02.590Z,1017.29
2019-06-01T09:52:02.951Z,1017.19
2019-06-01T09:53:02.564Z,1017.19
2019-06-01T09:54:02.554Z,1017.16
2019-06-01T09:55:02.546Z,1017.10
2019-06-01T09:56:02.550Z,1017.19
2019-06-01T09:57:02.529Z,1017.22
2019-06-01T09:58:02.512Z,1017.28
2019-06-01T09:59:02.499Z,1017.22
2019-06-01T10:00:02.493Z,1017.22
2019-06-01T10:01:02.497Z,1017.28
2019-06-01T10:02:02.488Z,1017.25
2019-06-01T10:03:02.461Z,1017.21
2019-06-01T10:04:02.455Z,1017.25
2019-06-01T10:05:02.443Z,1017.24
2019-06-01T10:06:02.706Z,1017.21
2019-06-01T10:07:02.415Z,1017.22
2019-06-01T10:08:02.434Z,1017.23
2019-06-01T10:09:02.398Z,1017.19
2019-06-01T10:10:02.390Z,1017.16
2019-06-01T10:11:02.384Z,1017.23
2019-06-01T10:12:02.365Z,1017.15
2019-06-01T10:13:02.352Z,1017.20
2019-06-01T10:14:02.342Z,1017.16
2019-06-01T10:15:02.422Z,1017.13
2019-06-01T10:16:02.360Z,1017.10
2019-06-01T10:17:02.323Z,1017.09
2019-06-01T10:18:02.298Z,1017.09
2019-06-01T10:19:02.288Z,1017.06
2019-06-01T10:20:02.282Z,1017.08
2019-06-01T10:21:02.277Z,1016.98
2019-06-01T10:22:02.273Z,1017.04
2019-06-01T10:23:02.292Z,1017.01
2019-06-01T10:24:02.270Z,1017.02
2019-06-01T10:25:02.260Z,1017.04
2019-06-01T10:26:02.262Z,1016.98
2019-06-01T10:27:02.204Z,1017.02
2019-06-01T10:28:02.203Z,1017.01
2019-06-01T10:29:02.881Z,1016.98
2019-06-01T10:30:02.185Z,1017.01
2019-06-01T10:31:02.187Z,1016.95
2019-06-01T10:32:02.149Z,1016.89
2019-06-01T10:33:02.146Z,1016.92
2019-06-01T10:34:02.438Z,1016.97
2019-06-01T10:35:03.099Z,1017.04
2019-06-01T10:36:19.092Z,1017.07
2019-06-01T10:37:03.102Z,1017.07
2019-06-01T10:38:02.091Z,1017.04
2019-06-01T10:39:02.098Z,1017.12
2019-06-01T10:40:02.071Z,1017.20
2019-06-01T10:41:02.109Z,1017.25
2019-06-01T10:42:02.845Z,1017.30
2019-06-01T10:43:02.046Z,1017.26
2019-06-01T10:44:02.030Z,1017.30
2019-06-01T10:45:02.102Z,1017.32
2019-06-01T10:46:02.013Z,1017.38
2019-06-01T10:47:02.011Z,1017.38
2019-06-01T10:48:01.987Z,1017.38
2019-06-01T10:49:01.988Z,1017.35
2019-06-01T10:50:02.956Z,1017.33
2019-06-01T10:51:01.962Z,1017.24
2019-06-01T10:52:01.969Z,1016.96
2019-06-01T10:53:01.952Z,1017.35
2019-06-01T10:54:01.928Z,1017.42
2019-06-01T10:55:01.914Z,1017.46
2019-06-01T10:56:01.919Z,1017.42
2019-06-01T10:57:01.899Z,1017.42
2019-06-01T10:58:01.887Z,1017.29
2019-06-01T10:59:01.895Z,1017.45
2019-06-01T11:00:01.883Z,1017.47
2019-06-01T11:01:01.883Z,1017.45
2019-06-01T11:02:01.855Z,1017.39
2019-06-01T11:03:01.967Z,1017.42
2019-06-01T11:04:01.837Z,1017.40
2019-06-01T11:05:01.826Z,1017.37
2019-06-01T11:06:01.818Z,1017.34
2019-06-01T11:07:01.802Z,1017.34
2019-06-01T11:08:01.804Z,1017.30
2019-06-01T11:09:01.791Z,1017.31
2019-06-01T11:10:01.774Z,1017.34
2019-06-01T11:11:08.405Z,1017.35
2019-06-01T11:12:01.756Z,1017.23
2019-06-01T11:13:01.761Z,1017.26
2019-06-01T11:14:01.861Z,1017.25
2019-06-01T11:15:01.730Z,1017.29
2019-06-01T11:16:01.722Z,1017.10
2019-06-01T11:17:01.728Z,1017.34
2019-06-01T11:18:01.705Z,1017.31
2019-06-01T11:19:01.709Z,1017.36
2019-06-01T11:20:01.729Z,1017.37
2019-06-01T11:21:01.674Z,1017.33
2019-06-01T11:22:01.681Z,1017.30
2019-06-01T11:23:01.659Z,1017.31
2019-06-01T11:24:01.686Z,1017.34
2019-06-01T11:25:01.685Z,1017.32
2019-06-01T11:26:01.653Z,1017.29
2019-06-01T11:27:01.618Z,1017.21
2019-06-01T11:28:01.697Z,1017.24
2019-06-01T11:29:01.603Z,1017.20
2019-06-01T11:30:01.597Z,1017.15
2019-06-01T11:31:01.611Z,1017.11
2019-06-01T11:32:01.575Z,1017.16
2019-06-01T11:33:01.574Z,1017.07
2019-06-01T11:34:01.555Z,1017.17
2019-06-01T11:35:01.549Z,1017.10
2019-06-01T11:36:01.560Z,1017.13
2019-06-01T11:37:05.258Z,1017.12
2019-06-01T11:38:01.519Z,1017.15
2019-06-01T11:39:01.587Z,1017.10
2019-06-01T11:40:01.523Z,1017.10
2019-06-01T11:41:01.531Z,1017.14
2019-06-01T11:42:01.480Z,1017.07
2019-06-01T11:43:01.489Z,1017.06
2019-06-01T11:44:01.467Z,1016.99
2019-06-01T11:45:01.489Z,1016.94
2019-06-01T11:46:01.465Z,1016.87
2019-06-01T11:47:01.440Z,1016.85
2019-06-01T11:48:01.417Z,1016.74
2019-06-01T11:49:01.420Z,1016.63
2019-06-01T11:50:01.423Z,1016.50
2019-06-01T11:51:01.394Z,1016.41
2019-06-01T11:52:01.444Z,1016.36
2019-06-01T11:53:01.386Z,1016.26
2019-06-01T11:54:01.358Z,1016.28
2019-06-01T11:55:01.400Z,1016.26
2019-06-01T11:56:01.920Z,1016.28
2019-06-01T11:57:01.332Z,1016.32
2019-06-01T11:58:01.363Z,1016.26
2019-06-01T11:59:01.314Z,1016.24
2019-06-01T12:00:01.299Z,1016.22
2019-06-01T12:01:01.356Z,1016.21
2019-06-01T12:02:01.443Z,1016.18
2019-06-01T12:03:01.268Z,1016.18
2019-06-01T12:04:01.272Z,1016.18
2019-06-01T12:05:01.254Z,1016.20